North Sunderland, United Kingdom
Current Conditions -  °F | °C
As of 10:50 PM on Friday 19 Dec 2014 (Local Time) from EGQM Reporting Station
Few Clouds Few Clouds  
Wind Chill: 31°   Ceiling: Unl
Heat Index: 41°   Visibility: 6mi
Dew Point: 36°   Wind: 22mph
Humidity: 81%   Direction: 240°WSW
Pressure: 29.77"   Gusts: 33mph
Location:  55.58°N, 1.66°W
Report Text: EGQM 192250Z AUTO 24019G29KT 9999 FEW220/// 05/02 Q1008
Loading
Personal Weather Stations






























Interactive Weather Map New forecast layout! Learn more

10-Day Weather Forecast

Advertisements
Track Severe Weather on mobile